New Winchester, Ohio
Current Conditions -  °F | °C
As of 8:53 PM on Thursday 18 Dec 2014 (Local Time) from KMNN Reporting Station
Haze Haze  
Wind Chill: -7°   Ceiling: 1000
Heat Index: -2°   Visibility: 5mi
Dew Point: -5°   Wind: 9mph
Humidity: 81%   Direction: 280°W
Pressure: 30.19"   Gusts: NA
Location:  40.815°N, 82.9723°W
Report Text: KMNN 190153Z AUTO 28008KT 5SM HZ OVC010 M02/M05 A3019 RMK AO2 SLP237 T10221050 TSNO
Loading
Personal Weather Stations






























Interactive Weather Map New forecast layout! Learn more

10-Day Weather Forecast

Advertisements
Track Severe Weather on mobile